createdAt,value
2022-09-11T00:01:12.545Z,12.91
2022-09-11T00:03:39.268Z,12.91
2022-09-11T00:06:08.482Z,12.97
2022-09-11T00:08:35.278Z,12.96
2022-09-11T00:11:08.454Z,12.98
2022-09-11T00:13:36.803Z,13.00
2022-09-11T00:16:05.857Z,12.96
2022-09-11T00:18:36.333Z,12.93
2022-09-11T00:21:05.520Z,12.89
2022-09-11T00:23:32.318Z,12.84
2022-09-11T00:26:02.868Z,12.87
2022-09-11T00:28:29.723Z,12.92
2022-09-11T00:31:12.611Z,12.91
2022-09-11T00:33:39.859Z,12.89
2022-09-11T00:36:12.214Z,12.83
2022-09-11T00:38:39.225Z,12.83
2022-09-11T00:41:10.593Z,12.89
2022-09-11T00:44:01.081Z,12.91
2022-09-11T00:46:50.129Z,12.91
2022-09-11T00:49:19.821Z,12.89
2022-09-11T00:51:50.747Z,12.89
2022-09-11T00:54:21.418Z,12.98
2022-09-11T00:56:49.721Z,13.02
2022-09-11T00:59:17.523Z,13.00
2022-09-11T01:01:44.204Z,13.03
2022-09-11T01:04:11.282Z,13.01
2022-09-11T01:06:37.973Z,13.00
2022-09-11T01:09:04.688Z,12.99
2022-09-11T01:12:09.323Z,12.98
2022-09-11T01:15:03.590Z,13.00
2022-09-11T01:17:36.251Z,12.99
2022-09-11T01:20:24.788Z,13.02
2022-09-11T01:23:05.259Z,13.06
2022-09-11T01:25:44.268Z,13.05
2022-09-11T01:28:15.519Z,13.01
2022-09-11T01:30:47.622Z,12.99
2022-09-11T01:33:23.498Z,12.96
2022-09-11T01:35:59.704Z,12.95
2022-09-11T01:38:46.812Z,12.96
2022-09-11T01:41:20.007Z,12.99
2022-09-11T01:43:56.938Z,12.98
2022-09-11T01:46:28.083Z,12.99
2022-09-11T01:49:07.838Z,12.90
2022-09-11T01:51:37.336Z,12.86
2022-09-11T01:54:09.308Z,12.84
2022-09-11T01:56:41.730Z,12.82
2022-09-11T01:59:13.123Z,12.83
2022-09-11T02:01:44.111Z,12.83
2022-09-11T02:04:16.897Z,12.80
2022-09-11T02:06:48.906Z,12.85
2022-09-11T02:09:21.208Z,12.88
2022-09-11T02:11:50.197Z,12.90
2022-09-11T02:14:30.645Z,12.92
2022-09-11T02:17:26.167Z,12.94
2022-09-11T02:19:57.209Z,12.97
2022-09-11T02:22:24.726Z,12.91
2022-09-11T02:24:52.263Z,12.93
2022-09-11T02:27:24.155Z,12.92
2022-09-11T02:29:50.917Z,12.98
2022-09-11T02:32:18.885Z,13.03
2022-09-11T02:34:48.548Z,13.03
2022-09-11T02:37:18.252Z,13.09
2022-09-11T02:39:55.843Z,13.11
2022-09-11T02:42:41.442Z,13.10
2022-09-11T02:45:38.812Z,13.10
2022-09-11T02:48:12.411Z,13.10
2022-09-11T02:51:01.578Z,13.16
2022-09-11T02:53:49.165Z,13.17
2022-09-11T02:56:31.699Z,13.12
2022-09-11T02:59:06.791Z,13.09
2022-09-11T03:01:55.322Z,13.11
2022-09-11T03:04:25.768Z,13.09
2022-09-11T03:06:54.574Z,13.07
2022-09-11T03:09:21.370Z,13.10
2022-09-11T03:11:51.894Z,13.07
2022-09-11T03:14:19.767Z,13.04
2022-09-11T03:16:46.849Z,13.04
2022-09-11T03:19:13.849Z,13.03
2022-09-11T03:21:40.534Z,12.99
2022-09-11T03:24:09.945Z,12.98
2022-09-11T03:26:37.830Z,13.01
2022-09-11T03:29:04.720Z,13.04
2022-09-11T03:31:33.753Z,13.04
2022-09-11T03:34:03.506Z,13.06
2022-09-11T03:36:30.249Z,13.05
2022-09-11T03:38:57.063Z,13.05
2022-09-11T03:41:23.777Z,13.08
2022-09-11T03:43:52.028Z,13.08
2022-09-11T03:46:18.886Z,13.09
2022-09-11T03:48:47.066Z,13.13
2022-09-11T03:51:15.199Z,13.14
2022-09-11T03:53:44.213Z,13.14
2022-09-11T03:56:12.145Z,13.12
2022-09-11T03:59:01.530Z,13.12
2022-09-11T04:01:29.282Z,13.13
2022-09-11T04:03:56.524Z,13.13
2022-09-11T04:06:29.482Z,13.16
2022-09-11T04:08:56.709Z,13.15
2022-09-11T04:11:23.659Z,13.16
2022-09-11T04:13:51.373Z,13.17
2022-09-11T04:16:19.836Z,13.18
2022-09-11T04:18:53.458Z,13.14
2022-09-11T04:21:21.389Z,13.13
2022-09-11T04:23:56.424Z,13.16
2022-09-11T04:26:26.578Z,13.12
2022-09-11T04:28:59.571Z,13.10
2022-09-11T04:31:27.705Z,13.09
2022-09-11T04:33:57.671Z,13.07
2022-09-11T04:36:30.046Z,13.04
2022-09-11T04:38:58.758Z,13.08
2022-09-11T04:41:25.628Z,13.09
2022-09-11T04:44:02.447Z,13.10
2022-09-11T04:46:31.908Z,13.13
2022-09-11T04:49:00.346Z,13.14
2022-09-11T04:51:30.269Z,13.13
2022-09-11T04:53:59.364Z,13.13
2022-09-11T04:56:34.263Z,13.13
2022-09-11T04:59:22.480Z,13.17
2022-09-11T05:02:15.310Z,13.16
2022-09-11T05:04:45.756Z,13.18
2022-09-11T05:07:14.464Z,13.17
2022-09-11T05:09:44.145Z,13.18
2022-09-11T05:12:11.124Z,13.19
2022-09-11T05:14:38.012Z,13.18
2022-09-11T05:17:05.545Z,13.18
2022-09-11T05:19:36.196Z,13.19
2022-09-11T05:22:04.406Z,13.21
2022-09-11T05:24:32.572Z,13.20
2022-09-11T05:26:59.267Z,13.20
2022-09-11T05:29:32.640Z,13.22
2022-09-11T05:32:08.533Z,13.20
2022-09-11T05:34:35.266Z,13.22
2022-09-11T05:37:02.687Z,13.25
2022-09-11T05:39:33.675Z,13.23
2022-09-11T05:42:04.043Z,13.20
2022-09-11T05:44:33.558Z,13.25
2022-09-11T05:47:00.575Z,13.24
2022-09-11T05:49:28.531Z,13.25
2022-09-11T05:51:55.199Z,13.24
2022-09-11T05:54:23.872Z,13.25
2022-09-11T05:56:53.090Z,13.23
2022-09-11T05:59:23.605Z,13.23
2022-09-11T06:01:51.275Z,13.25
2022-09-11T06:04:28.109Z,13.21
2022-09-11T06:06:57.203Z,13.18
2022-09-11T06:09:24.054Z,13.16
2022-09-11T06:11:53.105Z,13.15
2022-09-11T06:14:19.762Z,13.14
2022-09-11T06:16:47.908Z,13.13
2022-09-11T06:19:16.840Z,13.13
2022-09-11T06:21:44.848Z,13.15
2022-09-11T06:24:24.398Z,13.14
2022-09-11T06:26:51.343Z,13.10
2022-09-11T06:29:19.528Z,13.13
2022-09-11T06:31:51.396Z,13.18
2022-09-11T06:34:21.562Z,13.17
2022-09-11T06:36:51.842Z,13.21
2022-09-11T06:39:23.231Z,13.30
2022-09-11T06:41:51.308Z,13.35
2022-09-11T06:44:20.815Z,13.42
2022-09-11T06:46:47.863Z,13.46
2022-09-11T06:49:14.652Z,13.47
2022-09-11T06:52:07.443Z,13.46
2022-09-11T06:54:34.274Z,13.55
2022-09-11T06:57:03.896Z,13.63
2022-09-11T06:59:31.331Z,13.66
2022-09-11T07:01:58.134Z,13.66
2022-09-11T07:04:25.759Z,13.66
2022-09-11T07:06:53.825Z,13.66
2022-09-11T07:09:23.408Z,13.65
2022-09-11T07:11:54.291Z,13.58
2022-09-11T07:14:21.665Z,13.61
2022-09-11T07:16:55.230Z,13.65
2022-09-11T07:19:24.945Z,13.69
2022-09-11T07:21:52.030Z,13.72
2022-09-11T07:24:19.922Z,13.76
2022-09-11T07:26:46.775Z,13.75
2022-09-11T07:29:22.393Z,13.70
2022-09-11T07:31:50.283Z,13.66
2022-09-11T07:34:16.918Z,13.61
2022-09-11T07:36:44.678Z,13.57
2022-09-11T07:39:12.405Z,13.56
2022-09-11T07:41:59.524Z,13.55
2022-09-11T07:44:29.386Z,13.54
2022-09-11T07:46:57.335Z,13.49
2022-09-11T07:49:24.511Z,13.45
2022-09-11T07:51:52.454Z,13.42
2022-09-11T07:54:29.122Z,13.42
2022-09-11T07:56:56.281Z,13.45
2022-09-11T07:59:22.954Z,13.46
2022-09-11T08:01:51.354Z,13.54
2022-09-11T08:04:17.998Z,13.52
2022-09-11T08:06:45.056Z,13.54
2022-09-11T08:09:20.365Z,13.52
2022-09-11T08:11:55.712Z,13.49
2022-09-11T08:14:24.756Z,13.49
2022-09-11T08:16:54.260Z,13.52
2022-09-11T08:19:23.614Z,13.60
2022-09-11T08:21:54.690Z,13.67
2022-09-11T08:24:21.581Z,13.74
2022-09-11T08:26:51.249Z,13.91
2022-09-11T08:29:19.256Z,14.07
2022-09-11T08:31:47.232Z,14.27
2022-09-11T08:34:15.460Z,14.81
2022-09-11T08:36:42.226Z,15.30
2022-09-11T08:39:09.932Z,15.37
2022-09-11T08:41:49.132Z,15.30
2022-09-11T08:44:49.412Z,15.29
2022-09-11T08:47:28.467Z,15.30
2022-09-11T08:50:07.301Z,15.29
2022-09-11T08:52:36.796Z,15.30
2022-09-11T08:55:13.471Z,15.18
2022-09-11T08:58:00.634Z,15.35
2022-09-11T09:00:38.385Z,15.72
2022-09-11T09:03:30.316Z,16.19
2022-09-11T09:06:10.278Z,16.02
2022-09-11T09:08:56.265Z,15.92
2022-09-11T09:11:39.159Z,16.02
2022-09-11T09:14:44.225Z,16.50
2022-09-11T09:17:11.800Z,16.72
2022-09-11T09:20:04.210Z,16.44
2022-09-11T09:22:42.372Z,16.24
2022-09-11T09:25:16.688Z,16.45
2022-09-11T09:27:51.325Z,16.56
2022-09-11T09:30:24.526Z,16.42
2022-09-11T09:33:01.260Z,16.43
2022-09-11T09:35:59.784Z,16.42
2022-09-11T09:38:29.401Z,16.34
2022-09-11T09:41:21.199Z,16.70
2022-09-11T09:44:26.186Z,17.73
2022-09-11T09:46:54.168Z,17.87
2022-09-11T09:49:29.454Z,17.50
2022-09-11T09:52:02.220Z,17.41
2022-09-11T09:54:34.061Z,17.71
2022-09-11T09:57:04.483Z,18.15
2022-09-11T09:59:41.067Z,18.35
2022-09-11T10:02:07.918Z,18.18
2022-09-11T10:04:34.706Z,18.62
2022-09-11T10:07:14.080Z,19.27
2022-09-11T10:09:50.202Z,19.71
2022-09-11T10:12:21.782Z,19.15
2022-09-11T10:14:56.377Z,18.34
2022-09-11T10:17:32.470Z,17.80
2022-09-11T10:20:23.638Z,17.50
2022-09-11T10:22:51.967Z,17.23
2022-09-11T10:25:27.211Z,17.01
2022-09-11T10:28:05.905Z,17.07
2022-09-11T10:30:42.540Z,17.01
2022-09-11T10:33:26.886Z,16.97
2022-09-11T10:35:55.300Z,16.90
2022-09-11T10:38:47.276Z,17.05
2022-09-11T10:41:13.990Z,17.63
2022-09-11T10:43:50.377Z,18.84
2022-09-11T10:46:26.189Z,19.37
2022-09-11T10:48:56.057Z,19.18
2022-09-11T10:51:25.048Z,19.29
2022-09-11T10:53:57.565Z,19.20
2022-09-11T10:56:26.793Z,18.95
2022-09-11T10:58:59.941Z,18.76
2022-09-11T11:01:26.620Z,18.70
2022-09-11T11:03:53.398Z,18.72
2022-09-11T11:06:25.857Z,18.72
2022-09-11T11:09:05.059Z,18.61
2022-09-11T11:11:53.295Z,18.44
2022-09-11T11:14:39.381Z,18.50
2022-09-11T11:17:24.190Z,18.84
2022-09-11T11:20:13.780Z,18.78
2022-09-11T11:22:58.374Z,18.79
2022-09-11T11:25:59.416Z,18.81
2022-09-11T11:29:06.093Z,18.82
2022-09-11T11:32:10.251Z,18.69
2022-09-11T11:34:39.882Z,18.86
2022-09-11T11:37:32.583Z,19.25
2022-09-11T11:40:10.493Z,18.97
2022-09-11T11:42:55.380Z,18.56
2022-09-11T11:45:27.810Z,18.45
2022-09-11T11:47:55.661Z,18.37
2022-09-11T11:50:44.879Z,18.35
2022-09-11T11:53:24.894Z,18.42
2022-09-11T11:55:54.506Z,18.41
2022-09-11T11:58:47.357Z,18.52
2022-09-11T12:01:20.972Z,18.68
2022-09-11T12:03:59.635Z,18.82
2022-09-11T12:06:27.157Z,18.75
2022-09-11T12:08:53.957Z,18.76
2022-09-11T12:11:32.018Z,18.85
2022-09-11T12:13:59.545Z,19.03
2022-09-11T12:16:32.811Z,19.21
2022-09-11T12:19:07.605Z,19.42
2022-09-11T12:21:38.064Z,19.84
2022-09-11T12:24:04.641Z,19.82
2022-09-11T12:26:32.146Z,19.85
2022-09-11T12:29:14.602Z,20.45
2022-09-11T12:31:50.348Z,20.43
2022-09-11T12:34:25.828Z,20.22
2022-09-11T12:36:58.373Z,20.15
2022-09-11T12:39:34.656Z,20.33
2022-09-11T12:42:23.346Z,20.85
2022-09-11T12:44:49.959Z,21.31
2022-09-11T12:47:34.926Z,21.25
2022-09-11T12:50:09.993Z,20.88
2022-09-11T12:52:46.853Z,20.48
2022-09-11T12:55:31.867Z,20.11
2022-09-11T12:58:02.655Z,19.87
2022-09-11T13:01:00.742Z,19.72
2022-09-11T13:03:28.691Z,19.58
2022-09-11T13:06:00.136Z,19.65
2022-09-11T13:08:31.714Z,19.75
2022-09-11T13:11:36.684Z,19.93
2022-09-11T13:14:28.442Z,20.04
2022-09-11T13:16:55.647Z,20.04
2022-09-11T13:19:22.850Z,20.16
2022-09-11T13:21:56.685Z,20.37
2022-09-11T13:24:35.544Z,20.50
2022-09-11T13:27:13.330Z,20.67
2022-09-11T13:29:40.989Z,20.57
2022-09-11T13:32:13.669Z,20.44
2022-09-11T13:34:46.180Z,20.20
2022-09-11T13:37:22.645Z,19.96
2022-09-11T13:39:49.368Z,19.84
2022-09-11T13:42:20.972Z,19.84
2022-09-11T13:44:52.188Z,19.78
2022-09-11T13:47:23.427Z,19.75
2022-09-11T13:50:01.016Z,19.72
2022-09-11T13:52:30.564Z,19.92
2022-09-11T13:55:00.578Z,20.45
2022-09-11T13:57:29.536Z,20.46
2022-09-11T13:59:57.475Z,20.28
2022-09-11T14:02:48.666Z,19.97
2022-09-11T14:05:27.295Z,19.79
2022-09-11T14:08:00.797Z,19.57
2022-09-11T14:10:36.652Z,19.30
2022-09-11T14:13:25.263Z,19.24
2022-09-11T14:16:03.506Z,19.20
2022-09-11T14:18:37.162Z,19.27
2022-09-11T14:21:13.514Z,19.32
2022-09-11T14:23:50.565Z,19.25
2022-09-11T14:26:18.757Z,19.42
2022-09-11T14:29:01.036Z,19.83
2022-09-11T14:31:38.551Z,20.24
2022-09-11T14:34:20.759Z,20.34
2022-09-11T14:37:02.984Z,20.19
2022-09-11T14:39:36.478Z,19.92
2022-09-11T14:42:07.173Z,19.73
2022-09-11T14:44:35.643Z,19.54
2022-09-11T14:47:02.570Z,19.46
2022-09-11T14:49:29.728Z,19.37
2022-09-11T14:51:58.956Z,19.21
2022-09-11T14:54:31.249Z,19.07
2022-09-11T14:56:59.623Z,18.85
2022-09-11T14:59:29.215Z,18.75
2022-09-11T15:01:58.571Z,18.57
2022-09-11T15:04:25.528Z,18.49
2022-09-11T15:06:55.507Z,18.47
2022-09-11T15:09:23.638Z,18.44
2022-09-11T15:11:52.308Z,18.48
2022-09-11T15:14:38.022Z,18.50
2022-09-11T15:17:10.548Z,18.44
2022-09-11T15:19:38.188Z,18.45
2022-09-11T15:22:06.557Z,18.48
2022-09-11T15:24:33.700Z,18.52
2022-09-11T15:27:01.230Z,18.54
2022-09-11T15:29:31.482Z,18.59
2022-09-11T15:32:01.140Z,18.53
2022-09-11T15:34:31.744Z,18.54
2022-09-11T15:36:58.536Z,18.56
2022-09-11T15:39:25.709Z,18.50
2022-09-11T15:41:52.402Z,18.54
2022-09-11T15:44:27.466Z,18.47
2022-09-11T15:46:56.415Z,18.43
2022-09-11T15:49:24.321Z,18.41
2022-09-11T15:51:53.841Z,18.39
2022-09-11T15:54:23.268Z,18.37
2022-09-11T15:56:51.317Z,18.36
2022-09-11T15:59:18.023Z,18.34
2022-09-11T16:01:45.393Z,18.30
2022-09-11T16:04:15.501Z,18.23
2022-09-11T16:06:45.677Z,18.21
2022-09-11T16:09:15.857Z,18.20
2022-09-11T16:11:43.106Z,18.08
2022-09-11T16:14:37.344Z,18.08
2022-09-11T16:17:06.651Z,18.04
2022-09-11T16:19:34.801Z,18.01
2022-09-11T16:22:03.916Z,17.93
2022-09-11T16:24:35.556Z,17.92
2022-09-11T16:27:02.237Z,17.85
2022-09-11T16:29:44.074Z,17.75
2022-09-11T16:32:28.436Z,17.66
2022-09-11T16:34:57.296Z,17.57
2022-09-11T16:37:24.213Z,17.53
2022-09-11T16:39:51.101Z,17.44
2022-09-11T16:42:21.769Z,17.38
2022-09-11T16:44:49.750Z,17.34
2022-09-11T16:47:17.041Z,17.28
2022-09-11T16:50:06.512Z,17.23
2022-09-11T16:52:30.405Z,17.16
2022-09-11T16:54:57.030Z,17.10
2022-09-11T16:57:23.653Z,17.04
2022-09-11T16:59:51.011Z,17.02
2022-09-11T17:02:17.737Z,17.00
2022-09-11T17:04:44.436Z,16.95
2022-09-11T17:07:11.148Z,16.86
2022-09-11T17:09:37.873Z,16.78
2022-09-11T17:12:04.650Z,16.68
2022-09-11T17:14:31.321Z,16.62
2022-09-11T17:16:57.990Z,16.58
2022-09-11T17:19:24.688Z,16.51
2022-09-11T17:21:51.336Z,16.43
2022-09-11T17:24:21.636Z,16.38
2022-09-11T17:26:51.608Z,16.31
2022-09-11T17:29:19.558Z,16.24
2022-09-11T17:31:46.596Z,16.21
2022-09-11T17:34:14.718Z,16.15
2022-09-11T17:36:41.602Z,16.11
2022-09-11T17:39:08.885Z,16.05
2022-09-11T17:41:36.043Z,15.99
2022-09-11T17:44:02.877Z,15.93
2022-09-11T17:46:29.616Z,15.89
2022-09-11T17:48:56.353Z,15.86
2022-09-11T17:51:25.371Z,15.88
2022-09-11T17:53:57.323Z,15.86
2022-09-11T17:56:25.153Z,15.82
2022-09-11T17:58:55.966Z,15.78
2022-09-11T18:01:27.827Z,15.76
2022-09-11T18:03:55.487Z,15.74
2022-09-11T18:06:28.479Z,15.71
2022-09-11T18:08:57.746Z,15.69
2022-09-11T18:11:24.926Z,15.70
2022-09-11T18:13:51.628Z,15.70
2022-09-11T18:16:18.301Z,15.70
2022-09-11T18:18:45.033Z,15.72
2022-09-11T18:21:12.336Z,15.69
2022-09-11T18:23:41.039Z,15.66
2022-09-11T18:26:10.152Z,15.63
2022-09-11T18:28:37.614Z,15.61
2022-09-11T18:31:05.291Z,15.58
2022-09-11T18:33:32.942Z,15.48
2022-09-11T18:36:05.152Z,15.39
2022-09-11T18:38:33.173Z,15.35
2022-09-11T18:41:00.747Z,15.29
2022-09-11T18:43:28.654Z,15.25
2022-09-11T18:45:55.470Z,15.17
2022-09-11T18:48:22.187Z,15.12
2022-09-11T18:50:48.938Z,15.04
2022-09-11T18:53:17.303Z,14.96
2022-09-11T18:55:44.168Z,14.91
2022-09-11T18:58:10.989Z,14.90
2022-09-11T19:00:38.544Z,14.83
2022-09-11T19:03:05.291Z,14.81
2022-09-11T19:05:32.151Z,14.71
2022-09-11T19:08:01.220Z,14.60
2022-09-11T19:10:28.841Z,14.58
2022-09-11T19:12:55.566Z,14.60
2022-09-11T19:15:22.288Z,14.56
2022-09-11T19:17:49.505Z,14.53
2022-09-11T19:20:16.449Z,14.49
2022-09-11T19:22:44.301Z,14.47
2022-09-11T19:25:11.081Z,14.41
2022-09-11T19:27:38.217Z,14.35
2022-09-11T19:30:06.412Z,14.32
2022-09-11T19:32:33.578Z,14.25
2022-09-11T19:35:00.679Z,14.24
2022-09-11T19:37:28.385Z,14.23
2022-09-11T19:39:57.191Z,14.21
2022-09-11T19:42:23.992Z,14.18
2022-09-11T19:44:55.653Z,14.08
2022-09-11T19:47:24.964Z,13.96
2022-09-11T19:49:51.764Z,13.84
2022-09-11T19:52:18.510Z,13.80
2022-09-11T19:54:45.257Z,13.79
2022-09-11T19:57:11.868Z,13.77
2022-09-11T19:59:38.572Z,13.72
2022-09-11T20:02:05.460Z,13.68
2022-09-11T20:04:32.757Z,13.67
2022-09-11T20:07:00.419Z,13.62
2022-09-11T20:09:31.470Z,13.58
2022-09-11T20:12:00.455Z,13.57
2022-09-11T20:14:28.009Z,13.57
2022-09-11T20:16:54.714Z,13.59
2022-09-11T20:19:23.551Z,13.57
2022-09-11T20:21:50.502Z,13.55
2022-09-11T20:24:19.498Z,13.50
2022-09-11T20:26:46.306Z,13.49
2022-09-11T20:29:15.230Z,13.51
2022-09-11T20:31:49.760Z,13.46
2022-09-11T20:34:17.807Z,13.41
2022-09-11T20:36:45.651Z,13.41
2022-09-11T20:39:13.778Z,13.40
2022-09-11T20:41:40.993Z,13.38
2022-09-11T20:44:08.133Z,13.34
2022-09-11T20:46:35.107Z,13.33
2022-09-11T20:49:03.363Z,13.29
2022-09-11T20:51:30.856Z,13.29
2022-09-11T20:53:57.763Z,13.32
2022-09-11T20:56:24.544Z,13.36
2022-09-11T20:58:52.380Z,13.33
2022-09-11T21:01:22.180Z,13.26
2022-09-11T21:03:54.914Z,13.22
2022-09-11T21:06:26.089Z,13.17
2022-09-11T21:08:55.750Z,13.14
2022-09-11T21:11:24.747Z,13.10
2022-09-11T21:13:51.466Z,13.09
2022-09-11T21:16:20.028Z,13.02
2022-09-11T21:18:49.461Z,12.99
2022-09-11T21:21:16.901Z,12.96
2022-09-11T21:23:44.024Z,12.89
2022-09-11T21:26:13.596Z,12.85
2022-09-11T21:28:40.700Z,12.82
2022-09-11T21:31:07.669Z,12.80
2022-09-11T21:33:36.178Z,12.75
2022-09-11T21:36:03.986Z,12.69
2022-09-11T21:38:31.048Z,12.63
2022-09-11T21:41:00.000Z,12.57
2022-09-11T21:43:28.432Z,12.53
2022-09-11T21:45:55.100Z,12.57
2022-09-11T21:48:22.327Z,12.58
2022-09-11T21:50:49.055Z,12.66
2022-09-11T21:53:16.001Z,12.73
2022-09-11T21:55:45.126Z,12.71
2022-09-11T21:58:16.645Z,12.61
2022-09-11T22:00:43.908Z,12.48
2022-09-11T22:03:12.308Z,12.41
2022-09-11T22:05:44.304Z,12.34
2022-09-11T22:08:13.596Z,12.29
2022-09-11T22:10:45.234Z,12.28
2022-09-11T22:13:12.469Z,12.31
2022-09-11T22:15:44.622Z,12.34
2022-09-11T22:18:12.243Z,12.37
2022-09-11T22:20:40.667Z,12.35
2022-09-11T22:23:08.657Z,12.28
2022-09-11T22:25:36.939Z,12.32
2022-09-11T22:28:05.179Z,12.32
2022-09-11T22:30:32.450Z,12.26
2022-09-11T22:33:00.264Z,12.25
2022-09-11T22:35:28.713Z,12.17
2022-09-11T22:37:55.593Z,12.13
2022-09-11T22:40:22.590Z,12.17
2022-09-11T22:42:49.991Z,12.16
2022-09-11T22:45:17.711Z,12.16
2022-09-11T22:47:44.406Z,12.18
2022-09-11T22:50:11.050Z,12.08
2022-09-11T22:52:37.897Z,11.86
2022-09-11T22:55:06.101Z,11.82
2022-09-11T22:57:35.427Z,11.86
2022-09-11T23:00:05.094Z,11.87
2022-09-11T23:02:31.764Z,11.85
2022-09-11T23:05:17.069Z,11.81
2022-09-11T23:07:43.746Z,11.84
2022-09-11T23:10:10.533Z,11.85
2022-09-11T23:12:37.441Z,11.79
2022-09-11T23:15:04.517Z,11.77
2022-09-11T23:17:31.462Z,11.76
2022-09-11T23:19:58.092Z,11.73
2022-09-11T23:22:27.366Z,11.72
2022-09-11T23:24:54.329Z,11.68
2022-09-11T23:27:21.127Z,11.65
2022-09-11T23:29:47.822Z,11.57
2022-09-11T23:32:14.731Z,11.54
2022-09-11T23:34:41.377Z,11.50
2022-09-11T23:37:08.250Z,11.49
2022-09-11T23:39:35.013Z,11.43
2022-09-11T23:42:01.676Z,11.44
2022-09-11T23:44:28.329Z,11.47
2022-09-11T23:46:54.970Z,11.49
2022-09-11T23:49:21.625Z,11.46
2022-09-11T23:51:49.157Z,11.46
2022-09-11T23:54:16.019Z,11.45
2022-09-11T23:56:42.784Z,11.41
2022-09-11T23:59:09.569Z,11.32
